Time;durP1;ratioP1;P1;durP2;ratioP2;P2;SDS_P1;SDS_P2;PMS_P1;PMS_P2;Temp;Humidity;BMP_temperature;BMP_pressure;BME280_temperature;BME280_humidity;BME280_pressure;Samples;Min_cycle;Max_cycle;Signal;HPM_P1;HPM_P2
2023/07/06 00:02:26;;;;;;;10.25;6.05;;;;;;;;;;8268859;28;20042;-87
2023/07/06 00:06:29;;;;;;;9.40;5.55;;;;;;;;;;8276502;28;20054;-90
2023/07/06 00:10:34;;;;;;;12.23;6.65;;;;;;;;;;8270418;28;20417;-85
2023/07/06 00:14:37;;;;;;;11.70;7.22;;;;;;;;;;8269834;28;20129;-90
2023/07/06 00:18:41;;;;;;;11.02;6.75;;;;;;;;;;8271561;28;20054;-92
2023/07/06 00:22:44;;;;;;;9.40;6.75;;;;;;;;;;8273562;28;20154;-90
2023/07/06 00:26:48;;;;;;;8.63;5.25;;;;;;;;;;8270481;28;20054;-90
2023/07/06 00:30:57;;;;;;;7.88;5.22;;;;;;;;;;8279676;28;20082;-82
2023/07/06 00:35:00;;;;;;;8.27;5.53;;;;;;;;;;8272677;28;20061;-92
2023/07/06 00:39:04;;;;;;;8.82;6.75;;;;;;;;;;8271931;28;20054;-91
2023/07/06 00:43:11;;;;;;;12.02;5.80;;;;;;;;;;8270646;28;20474;-91
2023/07/06 00:47:14;;;;;;;10.60;6.78;;;;;;;;;;8273967;28;20078;-90
2023/07/06 00:51:22;;;;;;;9.50;6.60;;;;;;;;;;8266772;28;20061;-87
2023/07/06 00:55:28;;;;;;;10.85;6.53;;;;;;;;;;8266944;28;20106;-91
2023/07/06 00:59:34;;;;;;;9.55;6.50;;;;;;;;;;8263742;28;20141;-91
2023/07/06 01:03:43;;;;;;;11.13;7.47;;;;;;;;;;8284791;28;20061;-91
2023/07/06 01:07:48;;;;;;;10.85;6.80;;;;;;;;;;8281034;28;20133;-91
2023/07/06 01:11:55;;;;;;;8.27;5.43;;;;;;;;;;8269301;28;20073;-92
2023/07/06 01:16:08;;;;;;;14.32;6.38;;;;;;;;;;8270732;28;20137;-93
2023/07/06 01:20:20;;;;;;;13.75;6.85;;;;;;;;;;8268727;28;20061;-93
2023/07/06 01:24:49;;;;;;;12.93;7.07;;;;;;;;;;8281169;28;20062;-92
2023/07/06 01:29:13;;;;;;;13.40;8.07;;;;;;;;;;8266364;28;20056;-92
2023/07/06 01:33:22;;;;;;;13.73;6.93;;;;;;;;;;8279319;28;20114;-93
2023/07/06 01:37:31;;;;;;;13.98;7.70;;;;;;;;;;8257379;28;20422;-92
2023/07/06 01:41:34;;;;;;;15.98;7.72;;;;;;;;;;8265623;28;20108;-92
2023/07/06 01:45:38;;;;;;;15.60;8.20;;;;;;;;;;8268709;28;20055;-92
2023/07/06 01:49:42;;;;;;;15.02;8.70;;;;;;;;;;8280270;28;20077;-92
2023/07/06 01:53:56;;;;;;;17.60;8.88;;;;;;;;;;8273178;28;20077;-93
2023/07/06 01:58:07;;;;;;;18.38;9.57;;;;;;;;;;8264242;28;20554;-93
2023/07/06 02:02:11;;;;;;;16.90;10.48;;;;;;;;;;8249935;28;20137;-92
2023/07/06 02:06:17;;;;;;;15.98;9.70;;;;;;;;;;8283581;28;20129;-91
2023/07/06 02:10:22;;;;;;;13.95;8.95;;;;;;;;;;8265097;28;20109;-93
2023/07/06 02:14:25;;;;;;;15.40;9.50;;;;;;;;;;8245343;28;20093;-92
2023/07/06 02:18:28;;;;;;;20.77;11.90;;;;;;;;;;8260301;28;20054;-93
2023/07/06 02:22:33;;;;;;;19.48;9.98;;;;;;;;;;8271185;28;20415;-91
2023/07/06 02:26:36;;;;;;;16.48;9.20;;;;;;;;;;8268580;28;20138;-92
2023/07/06 02:30:38;;;;;;;23.77;11.38;;;;;;;;;;8249682;28;20059;-87
2023/07/06 02:34:41;;;;;;;21.50;12.07;;;;;;;;;;8262232;28;20129;-90
2023/07/06 02:38:47;;;;;;;21.40;11.27;;;;;;;;;;8278395;28;20534;-93
2023/07/06 02:42:50;;;;;;;16.95;10.07;;;;;;;;;;8259922;28;20109;-90
2023/07/06 02:46:54;;;;;;;20.75;10.75;;;;;;;;;;8259900;28;20058;-87
2023/07/06 02:50:57;;;;;;;20.20;11.30;;;;;;;;;;8274672;28;20074;-90
2023/07/06 02:55:02;;;;;;;21.00;11.75;;;;;;;;;;8272520;28;20421;-90
2023/07/06 02:59:05;;;;;;;31.52;13.45;;;;;;;;;;8278696;28;20064;-92
2023/07/06 03:03:09;;;;;;;36.60;14.88;;;;;;;;;;8270255;28;20173;-91
2023/07/06 03:07:12;;;;;;;28.80;14.90;;;;;;;;;;8262369;28;20051;-91
2023/07/06 03:11:17;;;;;;;29.15;16.17;;;;;;;;;;8271533;28;20050;-87
2023/07/06 03:15:19;;;;;;;31.38;15.32;;;;;;;;;;8265530;28;20054;-90
2023/07/06 03:19:22;;;;;;;29.50;14.95;;;;;;;;;;8275580;28;20058;-91
2023/07/06 03:23:24;;;;;;;26.05;12.95;;;;;;;;;;8248338;28;20046;-90
2023/07/06 03:27:29;;;;;;;24.48;12.60;;;;;;;;;;8265855;28;20058;-92
2023/07/06 03:31:32;;;;;;;22.98;13.88;;;;;;;;;;8282282;28;20487;-92
2023/07/06 03:35:35;;;;;;;17.70;11.38;;;;;;;;;;8276947;28;20129;-90
2023/07/06 03:39:38;;;;;;;19.20;11.23;;;;;;;;;;8267267;28;20702;-90
2023/07/06 03:43:41;;;;;;;19.98;11.45;;;;;;;;;;8232017;28;20086;-91
2023/07/06 03:47:46;;;;;;;17.35;10.25;;;;;;;;;;8258476;28;20051;-90
2023/07/06 03:51:49;;;;;;;18.25;10.77;;;;;;;;;;8258929;28;20553;-90
2023/07/06 03:55:54;;;;;;;16.80;10.73;;;;;;;;;;8269293;28;20058;-89
2023/07/06 03:59:58;;;;;;;19.02;10.73;;;;;;;;;;8274739;28;20062;-83
2023/07/06 04:04:05;;;;;;;27.15;11.82;;;;;;;;;;8267666;28;20045;-90
2023/07/06 04:08:12;;;;;;;24.13;13.73;;;;;;;;;;8257361;28;20479;-90
2023/07/06 04:12:15;;;;;;;24.88;14.82;;;;;;;;;;8260679;28;20150;-92
2023/07/06 04:16:20;;;;;;;16.73;11.80;;;;;;;;;;8259768;28;20460;-91
2023/07/06 04:20:25;;;;;;;24.20;14.30;;;;;;;;;;8259815;28;20069;-87
2023/07/06 04:24:31;;;;;;;21.52;15.70;;;;;;;;;;8237138;28;20046;-90
2023/07/06 04:28:34;;;;;;;27.65;18.55;;;;;;;;;;8262963;28;20055;-91
2023/07/06 04:32:43;;;;;;;28.00;21.40;;;;;;;;;;8261590;28;20082;-82
2023/07/06 04:36:46;;;;;;;30.83;22.35;;;;;;;;;;8259105;28;20046;-83
2023/07/06 04:40:50;;;;;;;28.50;21.48;;;;;;;;;;8269621;28;20165;-90
2023/07/06 04:44:53;;;;;;;24.15;14.88;;;;;;;;;;8274055;28;20137;-91
2023/07/06 04:49:01;;;;;;;19.60;12.18;;;;;;;;;;8256335;28;20134;-93
2023/07/06 04:53:07;;;;;;;14.05;9.60;;;;;;;;;;8274534;28;20050;-87
2023/07/06 04:57:13;;;;;;;13.30;9.23;;;;;;;;;;8261013;28;20054;-92
2023/07/06 05:01:16;;;;;;;12.45;7.25;;;;;;;;;;8265884;28;20478;-93
2023/07/06 05:05:22;;;;;;;10.43;6.63;;;;;;;;;;8277831;28;20479;-94
2023/07/06 05:09:25;;;;;;;12.20;6.30;;;;;;;;;;8280628;28;20111;-95
2023/07/06 05:13:28;;;;;;;12.23;5.60;;;;;;;;;;8273738;28;20510;-95
2023/07/06 05:17:31;;;;;;;9.75;5.20;;;;;;;;;;8267749;28;20105;-92
2023/07/06 05:21:36;;;;;;;7.55;5.03;;;;;;;;;;8258580;28;20108;-94
2023/07/06 05:25:39;;;;;;;11.10;5.07;;;;;;;;;;8281380;28;20073;-95
2023/07/06 05:29:42;;;;;;;7.60;4.25;;;;;;;;;;8277004;28;20086;-95
2023/07/06 05:33:45;;;;;;;10.25;4.60;;;;;;;;;;8275680;28;20125;-96
2023/07/06 05:37:51;;;;;;;9.25;4.47;;;;;;;;;;8270707;28;20155;-94
2023/07/06 05:41:54;;;;;;;12.35;4.25;;;;;;;;;;8276480;28;20061;-92
2023/07/06 05:45:58;;;;;;;8.75;4.22;;;;;;;;;;8250562;28;20089;-94
2023/07/06 05:50:02;;;;;;;9.15;3.95;;;;;;;;;;8249979;28;20051;-92
2023/07/06 05:54:06;;;;;;;7.07;4.05;;;;;;;;;;8244981;28;20050;-91
2023/07/06 05:58:09;;;;;;;8.18;3.97;;;;;;;;;;8272402;28;20076;-91
2023/07/06 06:02:16;;;;;;;5.60;3.33;;;;;;;;;;8245146;28;20621;-92
2023/07/06 06:06:22;;;;;;;6.22;3.63;;;;;;;;;;8274312;28;20054;-91
2023/07/06 06:10:26;;;;;;;8.35;4.07;;;;;;;;;;8276007;28;20058;-92
2023/07/06 06:14:29;;;;;;;10.98;3.92;;;;;;;;;;8280916;28;20076;-91
2023/07/06 06:18:33;;;;;;;8.30;3.42;;;;;;;;;;8266789;28;20478;-90
2023/07/06 06:22:36;;;;;;;15.15;4.25;;;;;;;;;;8277797;28;20138;-86
2023/07/06 06:26:42;;;;;;;7.78;3.42;;;;;;;;;;8272622;28;20515;-91
2023/07/06 06:30:46;;;;;;;6.25;3.20;;;;;;;;;;8265273;28;20058;-92
2023/07/06 06:34:49;;;;;;;8.15;3.38;;;;;;;;;;8265012;28;20061;-92
2023/07/06 06:38:52;;;;;;;5.20;3.35;;;;;;;;;;8265146;28;20557;-91
2023/07/06 06:43:00;;;;;;;7.57;3.35;;;;;;;;;;8266187;28;20054;-92
2023/07/06 06:47:04;;;;;;;7.30;3.30;;;;;;;;;;8265708;28;20065;-93
2023/07/06 06:51:09;;;;;;;7.55;3.63;;;;;;;;;;8277251;28;20172;-90
2023/07/06 06:55:12;;;;;;;6.60;2.97;;;;;;;;;;8269031;28;20585;-92
2023/07/06 06:59:16;;;;;;;7.03;3.05;;;;;;;;;;8268056;28;20061;-91
2023/07/06 07:03:19;;;;;;;7.18;3.30;;;;;;;;;;8254671;28;20409;-92
2023/07/06 07:07:22;;;;;;;8.88;3.15;;;;;;;;;;8268755;28;20149;-83
2023/07/06 07:11:25;;;;;;;4.88;2.80;;;;;;;;;;8264531;28;20054;-92
2023/07/06 07:15:30;;;;;;;4.95;2.92;;;;;;;;;;8277463;28;20438;-90
2023/07/06 07:19:34;;;;;;;6.25;2.80;;;;;;;;;;8267073;28;20137;-93
2023/07/06 07:23:40;;;;;;;3.83;2.42;;;;;;;;;;8271081;28;20057;-93
2023/07/06 07:27:43;;;;;;;4.78;2.80;;;;;;;;;;8257872;28;20097;-93
2023/07/06 07:31:49;;;;;;;7.85;3.05;;;;;;;;;;8270685;28;20486;-91
2023/07/06 07:35:52;;;;;;;7.03;3.00;;;;;;;;;;8280605;28;20483;-91
2023/07/06 07:39:56;;;;;;;3.47;2.60;;;;;;;;;;8280856;28;20054;-91
2023/07/06 07:44:00;;;;;;;7.75;2.95;;;;;;;;;;8265822;28;20046;-91
2023/07/06 07:48:06;;;;;;;4.07;2.80;;;;;;;;;;8286348;28;20134;-90
2023/07/06 07:52:09;;;;;;;6.88;2.72;;;;;;;;;;8269416;28;20043;-90
2023/07/06 07:56:15;;;;;;;6.78;2.83;;;;;;;;;;8279736;28;20132;-91
2023/07/06 08:00:20;;;;;;;6.85;2.97;;;;;;;;;;8273951;28;20129;-90
2023/07/06 08:04:24;;;;;;;4.82;2.58;;;;;;;;;;8272221;28;20097;-88
2023/07/06 08:08:27;;;;;;;7.03;2.72;;;;;;;;;;8286709;28;20053;-92
2023/07/06 08:12:32;;;;;;;5.45;3.00;;;;;;;;;;8276984;28;20097;-91
2023/07/06 08:16:35;;;;;;;6.25;2.92;;;;;;;;;;8275540;28;20445;-90
2023/07/06 08:20:39;;;;;;;5.68;2.80;;;;;;;;;;8281751;28;20066;-89
2023/07/06 08:24:42;;;;;;;8.68;2.83;;;;;;;;;;8269422;28;20471;-93
2023/07/06 08:28:46;;;;;;;7.20;3.10;;;;;;;;;;8271285;28;20070;-90
2023/07/06 08:32:49;;;;;;;6.03;2.47;;;;;;;;;;8268608;28;20546;-90
2023/07/06 08:36:54;;;;;;;5.93;3.05;;;;;;;;;;8265354;28;20148;-90
2023/07/06 08:40:58;;;;;;;5.45;3.20;;;;;;;;;;8269190;28;20054;-91
2023/07/06 08:45:01;;;;;;;7.40;2.97;;;;;;;;;;8264818;28;20054;-89
2023/07/06 08:49:06;;;;;;;7.90;3.30;;;;;;;;;;8268247;28;20462;-91
2023/07/06 08:53:14;;;;;;;4.35;2.85;;;;;;;;;;8267970;28;20054;-91
2023/07/06 08:57:20;;;;;;;10.30;2.85;;;;;;;;;;8268273;28;20084;-91
2023/07/06 09:01:24;;;;;;;8.30;3.22;;;;;;;;;;8268098;28;20071;-89
2023/07/06 09:05:31;;;;;;;5.75;2.70;;;;;;;;;;8267104;28;20058;-89
2023/07/06 09:09:39;;;;;;;4.45;2.83;;;;;;;;;;8267241;28;20042;-90
2023/07/06 09:13:47;;;;;;;4.20;2.42;;;;;;;;;;8271753;28;20082;-88
2023/07/06 09:17:51;;;;;;;6.25;2.90;;;;;;;;;;8249709;28;20117;-90
2023/07/06 09:21:55;;;;;;;7.22;2.92;;;;;;;;;;8274470;28;20057;-89
2023/07/06 09:26:05;;;;;;;5.18;2.80;;;;;;;;;;8267203;28;20070;-89
2023/07/06 09:30:25;;;;;;;5.65;3.03;;;;;;;;;;8276013;28;20546;-88
2023/07/06 09:34:29;;;;;;;5.85;2.70;;;;;;;;;;8271561;28;20058;-90
2023/07/06 09:38:43;;;;;;;5.50;2.80;;;;;;;;;;8277106;28;20506;-89
2023/07/06 09:42:49;;;;;;;9.40;2.90;;;;;;;;;;8270278;28;20137;-90
2023/07/06 09:46:55;;;;;;;7.22;3.35;;;;;;;;;;8268565;28;20054;-88
2023/07/06 09:51:08;;;;;;;8.80;3.05;;;;;;;;;;8257968;28;20136;-90
2023/07/06 09:55:19;;;;;;;7.13;3.00;;;;;;;;;;8269791;28;20133;-89
2023/07/06 09:59:23;;;;;;;4.82;2.70;;;;;;;;;;8266325;28;20233;-90
2023/07/06 10:03:39;;;;;;;7.63;2.55;;;;;;;;;;8269419;28;20061;-88
2023/07/06 10:07:52;;;;;;;6.20;2.70;;;;;;;;;;8274243;28;20129;-90
2023/07/06 10:11:57;;;;;;;5.22;2.42;;;;;;;;;;8262474;28;20168;-89
2023/07/06 10:16:12;;;;;;;5.65;2.38;;;;;;;;;;8268744;28;20049;-91
2023/07/06 10:20:19;;;;;;;6.93;2.45;;;;;;;;;;8265289;28;20178;-86
2023/07/06 10:24:32;;;;;;;7.90;2.63;;;;;;;;;;8275690;28;20058;-89
2023/07/06 10:28:38;;;;;;;5.57;3.00;;;;;;;;;;8277183;28;20065;-88
2023/07/06 10:32:46;;;;;;;6.00;2.67;;;;;;;;;;8264343;28;20129;-86
2023/07/06 10:36:51;;;;;;;4.53;2.67;;;;;;;;;;8264637;28;20054;-90
2023/07/06 10:41:22;;;;;;;6.80;2.30;;;;;;;;;;8264294;28;20058;-87
2023/07/06 10:45:42;;;;;;;8.35;2.70;;;;;;;;;;8264664;28;20129;-91
2023/07/06 10:54:23;;;;;;;5.43;2.40;;;;;;;;;;8491217;27;20796;-86
2023/07/06 10:58:29;;;;;;;5.30;2.30;;;;;;;;;;8462107;27;20040;-87
2023/07/06 11:02:40;;;;;;;4.65;2.30;;;;;;;;;;8458517;28;20553;-83
2023/07/06 11:06:54;;;;;;;7.88;2.95;;;;;;;;;;8460691;28;20039;-89
2023/07/06 11:11:02;;;;;;;8.18;2.70;;;;;;;;;;8457899;28;20044;-89
2023/07/06 11:15:16;;;;;;;5.03;2.47;;;;;;;;;;8475944;28;20067;-87
2023/07/06 11:19:25;;;;;;;7.35;2.35;;;;;;;;;;8460701;28;20089;-87
2023/07/06 11:23:35;;;;;;;4.30;2.33;;;;;;;;;;8461015;28;20064;-87
2023/07/06 11:27:45;;;;;;;3.95;2.20;;;;;;;;;;8443649;28;20143;-92
2023/07/06 11:32:04;;;;;;;6.05;2.67;;;;;;;;;;8460992;28;20047;-93
2023/07/06 11:36:17;;;;;;;4.13;2.20;;;;;;;;;;8446154;28;20067;-92
2023/07/06 11:40:34;;;;;;;6.05;2.15;;;;;;;;;;8458807;28;20288;-93
2023/07/06 11:44:50;;;;;;;4.03;1.92;;;;;;;;;;8477936;28;20043;-91
2023/07/06 11:49:02;;;;;;;7.20;2.45;;;;;;;;;;8458885;28;20368;-90
2023/07/06 11:53:17;;;;;;;6.05;2.10;;;;;;;;;;8451472;28;20059;-92
2023/07/06 11:57:28;;;;;;;7.72;2.22;;;;;;;;;;8445273;28;20043;-88
2023/07/06 12:01:40;;;;;;;5.93;2.60;;;;;;;;;;8469283;28;20047;-91
2023/07/06 12:05:46;;;;;;;5.43;2.58;;;;;;;;;;8441901;28;20040;-92
2023/07/06 12:09:49;;;;;;;5.72;2.33;;;;;;;;;;8434377;28;20568;-92
2023/07/06 12:13:53;;;;;;;6.03;2.33;;;;;;;;;;8434760;28;20083;-91
2023/07/06 12:18:01;;;;;;;4.95;2.20;;;;;;;;;;8438431;28;20694;-88
2023/07/06 12:22:04;;;;;;;7.18;2.67;;;;;;;;;;8450014;28;20396;-91
2023/07/06 12:26:14;;;;;;;4.60;2.40;;;;;;;;;;8421515;28;20040;-88
2023/07/06 12:30:18;;;;;;;4.43;2.22;;;;;;;;;;8409480;28;20094;-93
2023/07/06 12:34:32;;;;;;;7.25;2.80;;;;;;;;;;8442520;28;20405;-90
2023/07/06 12:38:36;;;;;;;4.20;2.00;;;;;;;;;;8416144;28;20052;-93
2023/07/06 12:42:39;;;;;;;9.63;2.80;;;;;;;;;;8427861;28;20131;-87
2023/07/06 12:46:51;;;;;;;8.02;2.80;;;;;;;;;;8406739;28;20497;-92
2023/07/06 12:50:57;;;;;;;6.43;2.47;;;;;;;;;;8395036;28;20414;-92
2023/07/06 12:55:00;;;;;;;5.25;2.30;;;;;;;;;;8338152;28;20158;-87
2023/07/06 12:59:04;;;;;;;4.88;2.38;;;;;;;;;;8356849;28;20052;-91
2023/07/06 13:03:12;;;;;;;4.28;2.25;;;;;;;;;;8345285;28;20595;-89
2023/07/06 13:07:19;;;;;;;5.28;2.30;;;;;;;;;;8347727;28;20060;-91
2023/07/06 13:11:22;;;;;;;5.10;2.50;;;;;;;;;;8347997;28;20093;-93
2023/07/06 13:15:27;;;;;;;7.30;2.40;;;;;;;;;;8333180;28;20865;-90
2023/07/06 13:19:33;;;;;;;6.47;2.78;;;;;;;;;;8383473;28;20099;-89
2023/07/06 13:23:38;;;;;;;7.85;2.70;;;;;;;;;;8397322;28;20555;-90
2023/07/06 13:27:41;;;;;;;7.45;3.03;;;;;;;;;;8407171;28;20507;-89
2023/07/06 13:31:45;;;;;;;7.75;2.72;;;;;;;;;;8433782;28;20040;-91
2023/07/06 13:35:48;;;;;;;6.78;2.80;;;;;;;;;;8425915;28;20063;-88
2023/07/06 13:39:53;;;;;;;5.70;2.90;;;;;;;;;;8427204;28;20040;-90
2023/07/06 13:43:56;;;;;;;5.63;2.67;;;;;;;;;;8428433;28;20468;-89
2023/07/06 13:47:59;;;;;;;7.90;2.90;;;;;;;;;;8429544;28;20119;-88
2023/07/06 13:52:02;;;;;;;9.75;2.80;;;;;;;;;;8429911;28;20074;-89
2023/07/06 13:56:08;;;;;;;6.35;3.05;;;;;;;;;;8430248;28;20071;-88
2023/07/06 14:00:12;;;;;;;6.72;2.60;;;;;;;;;;8429982;28;20047;-88
2023/07/06 14:04:18;;;;;;;8.15;3.10;;;;;;;;;;8430406;28;20395;-90
2023/07/06 14:08:24;;;;;;;6.32;2.88;;;;;;;;;;8429899;28;20040;-89
2023/07/06 14:12:28;;;;;;;6.40;2.78;;;;;;;;;;8429936;28;20551;-89
2023/07/06 14:16:31;;;;;;;5.70;2.50;;;;;;;;;;8433923;28;20143;-88
2023/07/06 14:20:36;;;;;;;4.78;2.55;;;;;;;;;;8429710;28;20070;-89
2023/07/06 14:24:40;;;;;;;9.52;2.60;;;;;;;;;;8429472;28;20127;-89
2023/07/06 14:28:49;;;;;;;8.00;2.78;;;;;;;;;;8429688;28;20475;-89
2023/07/06 14:32:52;;;;;;;6.05;2.88;;;;;;;;;;8429177;28;20131;-83
2023/07/06 14:36:55;;;;;;;7.40;2.65;;;;;;;;;;8429173;28;20175;-83
2023/07/06 14:41:01;;;;;;;6.45;2.75;;;;;;;;;;8428935;28;20040;-83
2023/07/06 14:45:08;;;;;;;6.05;3.13;;;;;;;;;;8428943;28;20040;-87
2023/07/06 14:49:11;;;;;;;6.40;2.80;;;;;;;;;;8429054;28;20043;-86
2023/07/06 14:53:13;;;;;;;5.93;2.95;;;;;;;;;;8428593;28;20161;-83
2023/07/06 14:57:16;;;;;;;6.28;2.97;;;;;;;;;;8427875;28;20050;-83
2023/07/06 15:01:20;;;;;;;4.90;2.50;;;;;;;;;;8428907;28;20052;-84
2023/07/06 15:05:23;;;;;;;6.75;2.72;;;;;;;;;;8438063;28;20064;-87
2023/07/06 15:09:26;;;;;;;5.68;2.65;;;;;;;;;;8428247;28;20110;-83
2023/07/06 15:13:29;;;;;;;5.72;2.40;;;;;;;;;;8428054;28;20047;-83
2023/07/06 15:17:34;;;;;;;5.90;2.85;;;;;;;;;;8414111;28;20130;-84
2023/07/06 15:21:37;;;;;;;4.40;2.30;;;;;;;;;;8428412;28;20044;-84
2023/07/06 15:25:42;;;;;;;4.30;2.33;;;;;;;;;;8412243;28;20495;-84
2023/07/06 15:29:49;;;;;;;5.93;2.55;;;;;;;;;;8441462;28;20500;-90
2023/07/06 15:33:58;;;;;;;5.63;2.60;;;;;;;;;;8416624;28;20044;-85
2023/07/06 15:38:04;;;;;;;5.60;2.30;;;;;;;;;;8408110;28;20076;-84
2023/07/06 15:42:07;;;;;;;4.28;2.63;;;;;;;;;;8411089;28;20535;-87
2023/07/06 15:46:10;;;;;;;5.80;2.60;;;;;;;;;;8414720;28;20060;-90
2023/07/06 15:50:15;;;;;;;5.00;2.40;;;;;;;;;;8415321;28;20132;-85
2023/07/06 15:54:18;;;;;;;4.82;2.33;;;;;;;;;;8442831;28;20131;-89
2023/07/06 15:58:21;;;;;;;6.35;2.53;;;;;;;;;;8423649;28;20048;-89
2023/07/06 16:02:24;;;;;;;6.95;2.33;;;;;;;;;;8427417;28;20051;-87
2023/07/06 16:06:30;;;;;;;7.05;2.90;;;;;;;;;;8434256;28;20426;-83
2023/07/06 16:10:33;;;;;;;6.57;2.65;;;;;;;;;;8433658;28;20044;-84
2023/07/06 16:14:36;;;;;;;6.45;2.60;;;;;;;;;;8433570;28;20123;-88
2023/07/06 16:18:39;;;;;;;5.20;2.58;;;;;;;;;;8433464;28;20040;-85
2023/07/06 16:22:44;;;;;;;5.97;2.80;;;;;;;;;;8433285;28;20116;-86
2023/07/06 16:26:47;;;;;;;6.28;2.80;;;;;;;;;;8450142;28;20044;-90
2023/07/06 16:30:50;;;;;;;5.75;2.60;;;;;;;;;;8436733;28;20047;-85
2023/07/06 16:34:53;;;;;;;8.65;2.63;;;;;;;;;;8437476;28;20051;-85
2023/07/06 16:38:57;;;;;;;6.35;3.28;;;;;;;;;;8430182;28;20055;-85
2023/07/06 16:43:00;;;;;;;6.65;4.40;;;;;;;;;;8425282;28;20044;-91
2023/07/06 16:47:04;;;;;;;6.80;3.90;;;;;;;;;;8416230;28;20047;-83
2023/07/06 16:51:07;;;;;;;7.00;3.65;;;;;;;;;;8411111;28;20055;-88
2023/07/06 16:55:12;;;;;;;6.90;3.55;;;;;;;;;;8407120;28;20123;-87
2023/07/06 16:59:15;;;;;;;10.40;3.15;;;;;;;;;;8411080;28;20045;-92
2023/07/06 17:03:18;;;;;;;9.75;3.70;;;;;;;;;;8400952;28;20083;-89
2023/07/06 17:07:21;;;;;;;5.93;3.50;;;;;;;;;;8410205;28;20453;-90
2023/07/06 17:11:27;;;;;;;6.50;3.13;;;;;;;;;;8416053;28;20049;-90
2023/07/06 17:15:30;;;;;;;5.95;2.90;;;;;;;;;;8422126;28;20068;-91
2023/07/06 17:19:33;;;;;;;5.07;2.80;;;;;;;;;;8419090;28;20378;-85
2023/07/06 17:23:37;;;;;;;6.60;2.80;;;;;;;;;;8417001;28;20048;-91
2023/07/06 17:27:41;;;;;;;7.20;2.97;;;;;;;;;;8416082;28;20449;-88
2023/07/06 17:31:45;;;;;;;6.70;2.55;;;;;;;;;;8432010;28;20480;-90
2023/07/06 17:35:48;;;;;;;6.20;2.53;;;;;;;;;;8416017;28;20526;-92
2023/07/06 17:39:53;;;;;;;4.25;2.75;;;;;;;;;;8411680;28;20146;-91
2023/07/06 17:43:58;;;;;;;4.60;2.80;;;;;;;;;;8425574;28;20108;-92
2023/07/06 17:48:02;;;;;;;7.30;3.10;;;;;;;;;;8413542;28;20101;-92
2023/07/06 17:52:07;;;;;;;6.18;3.33;;;;;;;;;;8422504;28;20048;-85
2023/07/06 17:56:11;;;;;;;5.38;3.58;;;;;;;;;;8420774;28;20123;-89
2023/07/06 18:00:18;;;;;;;6.75;3.45;;;;;;;;;;8402961;28;20046;-87
2023/07/06 18:04:21;;;;;;;6.10;3.60;;;;;;;;;;8430855;28;20040;-85
2023/07/06 18:08:26;;;;;;;7.13;3.67;;;;;;;;;;8416123;28;20491;-91
2023/07/06 18:12:29;;;;;;;9.35;4.32;;;;;;;;;;8410423;28;20845;-84
2023/07/06 18:16:34;;;;;;;9.27;4.22;;;;;;;;;;8416057;28;20543;-90
2023/07/06 18:20:37;;;;;;;8.48;4.32;;;;;;;;;;8410112;28;20052;-85
2023/07/06 18:24:41;;;;;;;7.35;4.35;;;;;;;;;;8406903;28;20071;-84
2023/07/06 18:28:44;;;;;;;9.00;4.82;;;;;;;;;;8419566;28;20060;-85
2023/07/06 18:32:49;;;;;;;17.25;8.43;;;;;;;;;;8422525;28;20052;-88
2023/07/06 18:36:53;;;;;;;8.88;4.82;;;;;;;;;;8422759;28;20396;-87
2023/07/06 18:40:56;;;;;;;10.35;6.05;;;;;;;;;;8414581;28;20088;-85
2023/07/06 18:45:02;;;;;;;10.32;4.45;;;;;;;;;;8419207;28;20119;-87
2023/07/06 18:49:07;;;;;;;9.00;5.03;;;;;;;;;;8421362;28;20046;-84
2023/07/06 18:53:10;;;;;;;13.07;7.43;;;;;;;;;;8425599;28;20056;-84
2023/07/06 18:57:14;;;;;;;11.55;5.97;;;;;;;;;;8404592;28;20460;-85
2023/07/06 19:01:18;;;;;;;10.50;4.85;;;;;;;;;;8420125;28;20165;-85
2023/07/06 19:05:24;;;;;;;9.20;5.50;;;;;;;;;;8405667;28;20139;-87
2023/07/06 19:09:28;;;;;;;13.75;6.07;;;;;;;;;;8411845;28;20131;-91
2023/07/06 19:13:33;;;;;;;12.23;5.10;;;;;;;;;;8421520;28;20044;-91
2023/07/06 19:17:37;;;;;;;9.98;5.53;;;;;;;;;;8421591;28;20044;-89
2023/07/06 19:21:43;;;;;;;14.70;6.72;;;;;;;;;;8412204;28;20044;-91
2023/07/06 19:25:46;;;;;;;17.67;7.40;;;;;;;;;;8415942;28;20491;-90
2023/07/06 19:29:50;;;;;;;15.80;7.05;;;;;;;;;;8421083;28;20056;-91
2023/07/06 19:33:53;;;;;;;48.38;21.90;;;;;;;;;;8420600;28;20044;-90
2023/07/06 19:37:58;;;;;;;39.38;20.23;;;;;;;;;;8427723;28;20040;-90
2023/07/06 19:42:02;;;;;;;14.00;7.50;;;;;;;;;;8425224;28;20122;-89
2023/07/06 19:46:06;;;;;;;17.17;7.82;;;;;;;;;;8426119;28;20047;-91
2023/07/06 19:50:11;;;;;;;23.35;12.05;;;;;;;;;;8419845;28;20502;-92
2023/07/06 19:54:16;;;;;;;29.02;13.13;;;;;;;;;;8416317;28;20291;-86
2023/07/06 19:58:20;;;;;;;13.13;8.60;;;;;;;;;;8418311;28;20076;-90
2023/07/06 20:02:24;;;;;;;11.13;7.90;;;;;;;;;;8401192;28;20048;-92
2023/07/06 20:06:29;;;;;;;13.40;7.60;;;;;;;;;;8401888;28;20044;-92
2023/07/06 20:10:34;;;;;;;15.05;8.40;;;;;;;;;;8407004;28;20637;-89
2023/07/06 20:14:40;;;;;;;13.25;7.45;;;;;;;;;;8416821;28;20123;-85
2023/07/06 20:18:44;;;;;;;14.88;9.00;;;;;;;;;;8420367;28;20070;-92
2023/07/06 20:22:48;;;;;;;23.50;12.50;;;;;;;;;;8419452;28;20473;-90
2023/07/06 20:26:55;;;;;;;12.93;8.15;;;;;;;;;;8434855;28;20063;-89
2023/07/06 20:31:03;;;;;;;11.13;6.95;;;;;;;;;;8437898;28;20048;-89
2023/07/06 20:35:08;;;;;;;14.48;7.70;;;;;;;;;;8432962;28;20081;-92
2023/07/06 20:39:12;;;;;;;11.35;7.43;;;;;;;;;;8424475;28;20032;-91
2023/07/06 20:43:19;;;;;;;16.00;7.28;;;;;;;;;;8428632;28;20134;-89
2023/07/06 20:47:23;;;;;;;13.20;8.23;;;;;;;;;;8444937;28;20082;-86
2023/07/06 20:51:27;;;;;;;16.33;7.53;;;;;;;;;;8433747;28;20091;-87
2023/07/06 20:55:33;;;;;;;13.45;7.30;;;;;;;;;;8432136;28;20127;-89
2023/07/06 20:59:39;;;;;;;12.63;8.10;;;;;;;;;;8436788;28;20043;-86
2023/07/06 21:03:42;;;;;;;14.25;8.15;;;;;;;;;;8428968;28;20040;-83
2023/07/06 21:07:45;;;;;;;13.25;8.30;;;;;;;;;;8421979;28;20056;-84
2023/07/06 21:11:47;;;;;;;14.57;7.97;;;;;;;;;;8431732;28;20048;-84
2023/07/06 21:15:52;;;;;;;15.48;8.02;;;;;;;;;;8439559;28;20409;-84
2023/07/06 21:19:55;;;;;;;14.13;8.00;;;;;;;;;;8435336;28;20452;-90
2023/07/06 21:23:58;;;;;;;16.73;7.90;;;;;;;;;;8434115;28;20070;-84
2023/07/06 21:28:01;;;;;;;12.32;8.00;;;;;;;;;;8438280;28;20039;-89
2023/07/06 21:32:06;;;;;;;17.17;8.77;;;;;;;;;;8430492;28;20044;-91
2023/07/06 21:36:09;;;;;;;16.38;8.88;;;;;;;;;;8431993;28;20040;-91
2023/07/06 21:40:13;;;;;;;14.90;8.23;;;;;;;;;;8431777;28;20085;-91
2023/07/06 21:44:16;;;;;;;14.57;8.88;;;;;;;;;;8436110;28;20067;-83
2023/07/06 21:48:20;;;;;;;15.82;8.82;;;;;;;;;;8431855;28;20075;-90
2023/07/06 21:52:23;;;;;;;18.58;8.43;;;;;;;;;;8435812;28;20071;-92
2023/07/06 21:56:26;;;;;;;15.63;9.68;;;;;;;;;;8441352;28;20044;-86
2023/07/06 22:00:29;;;;;;;16.20;8.65;;;;;;;;;;8440485;28;20123;-90
2023/07/06 22:04:34;;;;;;;16.58;9.15;;;;;;;;;;8448554;28;20475;-86
2023/07/06 22:08:37;;;;;;;15.57;8.77;;;;;;;;;;8449004;28;20070;-91
2023/07/06 22:12:40;;;;;;;16.60;8.82;;;;;;;;;;8435397;28;20047;-83
2023/07/06 22:16:43;;;;;;;15.85;9.60;;;;;;;;;;8447576;28;20070;-84
2023/07/06 22:20:49;;;;;;;17.60;8.93;;;;;;;;;;8439869;28;20056;-86
2023/07/06 22:24:52;;;;;;;17.25;9.48;;;;;;;;;;8430176;28;20063;-85
2023/07/06 22:28:54;;;;;;;16.30;9.43;;;;;;;;;;8430152;28;20051;-88
2023/07/06 22:32:57;;;;;;;16.33;9.63;;;;;;;;;;8416718;28;20097;-89
2023/07/06 22:37:02;;;;;;;18.95;9.90;;;;;;;;;;8426930;28;20043;-86
2023/07/06 22:41:05;;;;;;;13.45;8.85;;;;;;;;;;8417962;28;20115;-83
2023/07/06 22:45:09;;;;;;;14.48;8.15;;;;;;;;;;8430025;28;20060;-93
2023/07/06 22:49:15;;;;;;;14.95;8.35;;;;;;;;;;8430009;28;20444;-91
2023/07/06 22:53:20;;;;;;;13.25;8.23;;;;;;;;;;8434106;28;20127;-90
2023/07/06 22:57:22;;;;;;;14.55;8.63;;;;;;;;;;8439156;28;20188;-88
2023/07/06 23:01:25;;;;;;;15.90;9.45;;;;;;;;;;8445181;28;20047;-89
2023/07/06 23:05:28;;;;;;;15.68;8.10;;;;;;;;;;8436967;28;20652;-85
2023/07/06 23:09:33;;;;;;;13.85;8.55;;;;;;;;;;8435613;28;20125;-91
2023/07/06 23:13:35;;;;;;;13.63;8.32;;;;;;;;;;8441287;28;20104;-83
2023/07/06 23:17:38;;;;;;;14.95;8.35;;;;;;;;;;8431250;28;20123;-93
2023/07/06 23:21:41;;;;;;;20.90;9.25;;;;;;;;;;8440652;28;20032;-85
2023/07/06 23:25:49;;;;;;;18.30;8.68;;;;;;;;;;8442163;28;20092;-85
2023/07/06 23:29:56;;;;;;;14.63;8.60;;;;;;;;;;8439836;28;20071;-93
2023/07/06 23:34:01;;;;;;;15.05;8.60;;;;;;;;;;8444487;28;20109;-93
2023/07/06 23:38:04;;;;;;;19.45;8.98;;;;;;;;;;8439945;28;20044;-85
2023/07/06 23:42:09;;;;;;;13.00;7.70;;;;;;;;;;8437875;28;20491;-84
2023/07/06 23:46:12;;;;;;;14.93;8.48;;;;;;;;;;8438787;28;20131;-89
2023/07/06 23:50:16;;;;;;;16.17;8.35;;;;;;;;;;8433063;28;20383;-86
2023/07/06 23:54:23;;;;;;;15.88;8.75;;;;;;;;;;8442009;28;20087;-91
2023/07/06 23:58:29;;;;;;;13.20;8.45;;;;;;;;;;8435235;28;20067;-92
